sensor_id;sensor_type;location;lat;lon;timestamp;P1;durP1;ratioP1;P2;durP2;ratioP2
64225;SDS011;50545;56.064;26.178;2022-11-20T00:01:20;4.32;;;2.30;;
64225;SDS011;50545;56.064;26.178;2022-11-20T00:03:50;4.07;;;2.45;;
64225;SDS011;50545;56.064;26.178;2022-11-20T00:06:18;3.30;;;2.30;;
64225;SDS011;50545;56.064;26.178;2022-11-20T00:08:47;3.95;;;2.40;;
64225;SDS011;50545;56.064;26.178;2022-11-20T00:11:16;3.65;;;2.40;;
64225;SDS011;50545;56.064;26.178;2022-11-20T00:16:14;4.70;;;2.60;;
64225;SDS011;50545;56.064;26.178;2022-11-20T00:18:43;3.58;;;2.40;;
64225;SDS011;50545;56.064;26.178;2022-11-20T00:21:12;3.63;;;2.40;;
64225;SDS011;50545;56.064;26.178;2022-11-20T00:23:41;3.53;;;2.22;;
64225;SDS011;50545;56.064;26.178;2022-11-20T00:26:10;3.42;;;2.10;;
64225;SDS011;50545;56.064;26.178;2022-11-20T00:28:39;4.13;;;2.30;;
64225;SDS011;50545;56.064;26.178;2022-11-20T00:31:08;5.35;;;2.30;;
64225;SDS011;50545;56.064;26.178;2022-11-20T00:33:40;3.67;;;2.40;;
64225;SDS011;50545;56.064;26.178;2022-11-20T00:36:12;4.03;;;2.40;;
64225;SDS011;50545;56.064;26.178;2022-11-20T00:38:41;2.90;;;2.10;;
64225;SDS011;50545;56.064;26.178;2022-11-20T00:41:09;3.75;;;2.20;;
64225;SDS011;50545;56.064;26.178;2022-11-20T00:43:41;3.42;;;2.17;;
64225;SDS011;50545;56.064;26.178;2022-11-20T00:48:40;3.65;;;2.20;;
64225;SDS011;50545;56.064;26.178;2022-11-20T00:51:08;3.58;;;2.30;;
64225;SDS011;50545;56.064;26.178;2022-11-20T00:53:36;3.35;;;2.08;;
64225;SDS011;50545;56.064;26.178;2022-11-20T00:56:04;4.95;;;2.60;;
64225;SDS011;50545;56.064;26.178;2022-11-20T00:58:34;3.53;;;2.20;;
64225;SDS011;50545;56.064;26.178;2022-11-20T01:03:44;3.10;;;2.15;;
64225;SDS011;50545;56.064;26.178;2022-11-20T01:06:19;3.05;;;2.05;;
64225;SDS011;50545;56.064;26.178;2022-11-20T01:08:55;3.90;;;2.45;;
64225;SDS011;50545;56.064;26.178;2022-11-20T01:11:31;3.13;;;2.28;;
64225;SDS011;50545;56.064;26.178;2022-11-20T01:14:01;3.45;;;2.15;;
64225;SDS011;50545;56.064;26.178;2022-11-20T01:16:31;5.43;;;2.55;;
64225;SDS011;50545;56.064;26.178;2022-11-20T01:21:29;3.88;;;2.40;;
64225;SDS011;50545;56.064;26.178;2022-11-20T01:23:58;3.50;;;2.13;;
64225;SDS011;50545;56.064;26.178;2022-11-20T01:26:27;4.40;;;2.30;;
64225;SDS011;50545;56.064;26.178;2022-11-20T01:28:56;4.60;;;2.50;;
64225;SDS011;50545;56.064;26.178;2022-11-20T01:33:54;4.63;;;2.70;;
64225;SDS011;50545;56.064;26.178;2022-11-20T01:36:23;4.80;;;2.55;;
64225;SDS011;50545;56.064;26.178;2022-11-20T01:38:53;4.00;;;2.50;;
64225;SDS011;50545;56.064;26.178;2022-11-20T01:41:23;4.32;;;2.53;;
64225;SDS011;50545;56.064;26.178;2022-11-20T01:44:11;3.67;;;2.35;;
64225;SDS011;50545;56.064;26.178;2022-11-20T01:47:16;4.20;;;2.30;;
64225;SDS011;50545;56.064;26.178;2022-11-20T01:49:40;4.82;;;2.50;;
64225;SDS011;50545;56.064;26.178;2022-11-20T01:52:17;3.92;;;2.50;;
64225;SDS011;50545;56.064;26.178;2022-11-20T01:55:09;3.90;;;2.30;;
64225;SDS011;50545;56.064;26.178;2022-11-20T01:57:41;3.92;;;2.13;;
64225;SDS011;50545;56.064;26.178;2022-11-20T02:00:11;4.22;;;2.47;;
64225;SDS011;50545;56.064;26.178;2022-11-20T02:02:42;3.92;;;2.35;;
64225;SDS011;50545;56.064;26.178;2022-11-20T02:08:20;4.50;;;2.42;;
64225;SDS011;50545;56.064;26.178;2022-11-20T02:10:48;2.92;;;2.30;;
64225;SDS011;50545;56.064;26.178;2022-11-20T02:13:15;4.80;;;2.35;;
64225;SDS011;50545;56.064;26.178;2022-11-20T02:16:01;4.13;;;2.58;;
64225;SDS011;50545;56.064;26.178;2022-11-20T02:18:29;4.50;;;2.60;;
64225;SDS011;50545;56.064;26.178;2022-11-20T02:20:59;4.90;;;2.67;;
64225;SDS011;50545;56.064;26.178;2022-11-20T02:24:07;4.55;;;2.65;;
64225;SDS011;50545;56.064;26.178;2022-11-20T02:26:53;5.03;;;2.85;;
64225;SDS011;50545;56.064;26.178;2022-11-20T02:29:25;4.22;;;2.72;;
64225;SDS011;50545;56.064;26.178;2022-11-20T02:31:57;4.97;;;2.85;;
64225;SDS011;50545;56.064;26.178;2022-11-20T02:34:27;4.07;;;2.75;;
64225;SDS011;50545;56.064;26.178;2022-11-20T02:36:55;5.10;;;2.78;;
64225;SDS011;50545;56.064;26.178;2022-11-20T02:39:24;4.47;;;2.72;;
64225;SDS011;50545;56.064;26.178;2022-11-20T02:41:56;5.43;;;2.80;;
64225;SDS011;50545;56.064;26.178;2022-11-20T02:44:23;4.85;;;2.70;;
64225;SDS011;50545;56.064;26.178;2022-11-20T02:46:51;4.70;;;2.65;;
64225;SDS011;50545;56.064;26.178;2022-11-20T02:49:18;4.47;;;2.67;;
64225;SDS011;50545;56.064;26.178;2022-11-20T02:51:45;4.43;;;2.72;;
64225;SDS011;50545;56.064;26.178;2022-11-20T02:54:13;5.50;;;3.10;;
64225;SDS011;50545;56.064;26.178;2022-11-20T02:56:40;5.45;;;2.85;;
64225;SDS011;50545;56.064;26.178;2022-11-20T02:59:07;4.35;;;2.65;;
64225;SDS011;50545;56.064;26.178;2022-11-20T03:01:35;5.70;;;2.97;;
64225;SDS011;50545;56.064;26.178;2022-11-20T03:04:02;5.95;;;3.50;;
64225;SDS011;50545;56.064;26.178;2022-11-20T03:06:29;4.78;;;3.08;;
64225;SDS011;50545;56.064;26.178;2022-11-20T03:08:57;5.45;;;3.03;;
64225;SDS011;50545;56.064;26.178;2022-11-20T03:11:24;6.30;;;3.60;;
64225;SDS011;50545;56.064;26.178;2022-11-20T03:13:51;4.85;;;2.97;;
64225;SDS011;50545;56.064;26.178;2022-11-20T03:16:19;5.68;;;3.20;;
64225;SDS011;50545;56.064;26.178;2022-11-20T03:18:48;6.53;;;3.30;;
64225;SDS011;50545;56.064;26.178;2022-11-20T03:21:18;5.73;;;3.40;;
64225;SDS011;50545;56.064;26.178;2022-11-20T03:23:45;5.85;;;3.13;;
64225;SDS011;50545;56.064;26.178;2022-11-20T03:26:16;6.32;;;3.25;;
64225;SDS011;50545;56.064;26.178;2022-11-20T03:28:46;5.18;;;3.22;;
64225;SDS011;50545;56.064;26.178;2022-11-20T03:31:15;6.10;;;3.42;;
64225;SDS011;50545;56.064;26.178;2022-11-20T03:33:44;5.82;;;3.28;;
64225;SDS011;50545;56.064;26.178;2022-11-20T03:36:12;5.50;;;3.22;;
64225;SDS011;50545;56.064;26.178;2022-11-20T03:38:40;5.47;;;3.15;;
64225;SDS011;50545;56.064;26.178;2022-11-20T03:41:09;6.07;;;3.33;;
64225;SDS011;50545;56.064;26.178;2022-11-20T03:43:38;7.18;;;3.45;;
64225;SDS011;50545;56.064;26.178;2022-11-20T03:46:06;5.50;;;3.20;;
64225;SDS011;50545;56.064;26.178;2022-11-20T03:48:34;5.68;;;3.20;;
64225;SDS011;50545;56.064;26.178;2022-11-20T03:51:14;5.93;;;3.00;;
64225;SDS011;50545;56.064;26.178;2022-11-20T03:53:45;5.57;;;3.30;;
64225;SDS011;50545;56.064;26.178;2022-11-20T03:56:14;5.85;;;3.30;;
64225;SDS011;50545;56.064;26.178;2022-11-20T03:58:43;6.25;;;3.53;;
64225;SDS011;50545;56.064;26.178;2022-11-20T04:01:14;6.22;;;3.30;;
64225;SDS011;50545;56.064;26.178;2022-11-20T04:03:43;5.43;;;3.47;;
64225;SDS011;50545;56.064;26.178;2022-11-20T04:06:12;6.70;;;3.50;;
64225;SDS011;50545;56.064;26.178;2022-11-20T04:08:44;5.60;;;3.40;;
64225;SDS011;50545;56.064;26.178;2022-11-20T04:11:22;5.68;;;3.10;;
64225;SDS011;50545;56.064;26.178;2022-11-20T04:13:52;5.47;;;3.22;;
64225;SDS011;50545;56.064;26.178;2022-11-20T04:16:22;5.38;;;3.40;;
64225;SDS011;50545;56.064;26.178;2022-11-20T04:18:54;5.95;;;2.75;;
64225;SDS011;50545;56.064;26.178;2022-11-20T04:21:23;6.20;;;3.03;;
64225;SDS011;50545;56.064;26.178;2022-11-20T04:23:51;5.78;;;3.58;;
64225;SDS011;50545;56.064;26.178;2022-11-20T04:26:19;5.75;;;3.50;;
64225;SDS011;50545;56.064;26.178;2022-11-20T04:28:47;6.07;;;3.53;;
64225;SDS011;50545;56.064;26.178;2022-11-20T04:31:16;6.65;;;3.72;;
64225;SDS011;50545;56.064;26.178;2022-11-20T04:33:45;7.22;;;3.63;;
64225;SDS011;50545;56.064;26.178;2022-11-20T04:36:14;6.03;;;3.50;;
64225;SDS011;50545;56.064;26.178;2022-11-20T04:41:20;6.03;;;3.30;;
64225;SDS011;50545;56.064;26.178;2022-11-20T04:43:49;5.75;;;3.33;;
64225;SDS011;50545;56.064;26.178;2022-11-20T04:46:18;6.18;;;3.78;;
64225;SDS011;50545;56.064;26.178;2022-11-20T04:48:46;5.88;;;3.45;;
64225;SDS011;50545;56.064;26.178;2022-11-20T04:51:14;6.53;;;3.60;;
64225;SDS011;50545;56.064;26.178;2022-11-20T04:53:42;6.38;;;3.47;;
64225;SDS011;50545;56.064;26.178;2022-11-20T04:56:10;6.82;;;3.55;;
64225;SDS011;50545;56.064;26.178;2022-11-20T04:58:38;6.63;;;3.88;;
64225;SDS011;50545;56.064;26.178;2022-11-20T05:01:07;5.95;;;3.33;;
64225;SDS011;50545;56.064;26.178;2022-11-20T05:03:39;7.65;;;4.10;;
64225;SDS011;50545;56.064;26.178;2022-11-20T05:06:08;6.72;;;3.85;;
64225;SDS011;50545;56.064;26.178;2022-11-20T05:08:37;6.78;;;4.28;;
64225;SDS011;50545;56.064;26.178;2022-11-20T05:11:08;7.13;;;4.28;;
64225;SDS011;50545;56.064;26.178;2022-11-20T05:13:37;6.30;;;3.72;;
64225;SDS011;50545;56.064;26.178;2022-11-20T05:16:05;7.25;;;4.13;;
64225;SDS011;50545;56.064;26.178;2022-11-20T05:18:35;9.23;;;4.15;;
64225;SDS011;50545;56.064;26.178;2022-11-20T05:21:03;6.70;;;3.92;;
64225;SDS011;50545;56.064;26.178;2022-11-20T05:23:31;6.88;;;3.92;;
64225;SDS011;50545;56.064;26.178;2022-11-20T05:25:59;7.10;;;3.80;;
64225;SDS011;50545;56.064;26.178;2022-11-20T05:28:27;6.93;;;4.03;;
64225;SDS011;50545;56.064;26.178;2022-11-20T05:31:03;8.00;;;4.32;;
64225;SDS011;50545;56.064;26.178;2022-11-20T05:33:31;6.90;;;4.25;;
64225;SDS011;50545;56.064;26.178;2022-11-20T05:35:59;7.43;;;4.10;;
64225;SDS011;50545;56.064;26.178;2022-11-20T05:38:26;7.68;;;4.35;;
64225;SDS011;50545;56.064;26.178;2022-11-20T05:40:54;8.48;;;4.70;;
64225;SDS011;50545;56.064;26.178;2022-11-20T05:43:21;7.38;;;4.40;;
64225;SDS011;50545;56.064;26.178;2022-11-20T05:45:54;7.13;;;3.97;;
64225;SDS011;50545;56.064;26.178;2022-11-20T05:48:21;5.85;;;3.78;;
64225;SDS011;50545;56.064;26.178;2022-11-20T05:50:48;7.75;;;4.07;;
64225;SDS011;50545;56.064;26.178;2022-11-20T05:53:16;7.85;;;4.97;;
64225;SDS011;50545;56.064;26.178;2022-11-20T05:55:43;7.70;;;4.70;;
64225;SDS011;50545;56.064;26.178;2022-11-20T05:58:10;8.73;;;4.50;;
64225;SDS011;50545;56.064;26.178;2022-11-20T06:00:37;9.10;;;4.82;;
64225;SDS011;50545;56.064;26.178;2022-11-20T06:03:04;8.98;;;5.00;;
64225;SDS011;50545;56.064;26.178;2022-11-20T06:05:33;7.28;;;4.78;;
64225;SDS011;50545;56.064;26.178;2022-11-20T06:08:00;8.00;;;4.70;;
64225;SDS011;50545;56.064;26.178;2022-11-20T06:10:27;9.57;;;5.32;;
64225;SDS011;50545;56.064;26.178;2022-11-20T06:12:57;10.00;;;5.10;;
64225;SDS011;50545;56.064;26.178;2022-11-20T06:15:24;8.18;;;5.22;;
64225;SDS011;50545;56.064;26.178;2022-11-20T06:17:52;8.25;;;5.07;;
64225;SDS011;50545;56.064;26.178;2022-11-20T06:20:22;9.30;;;5.18;;
64225;SDS011;50545;56.064;26.178;2022-11-20T06:22:50;8.55;;;5.13;;
64225;SDS011;50545;56.064;26.178;2022-11-20T06:25:17;9.15;;;4.70;;
64225;SDS011;50545;56.064;26.178;2022-11-20T06:27:44;7.72;;;4.57;;
64225;SDS011;50545;56.064;26.178;2022-11-20T06:30:11;9.32;;;5.55;;
64225;SDS011;50545;56.064;26.178;2022-11-20T06:32:39;8.95;;;5.47;;
64225;SDS011;50545;56.064;26.178;2022-11-20T06:35:06;10.70;;;6.28;;
64225;SDS011;50545;56.064;26.178;2022-11-20T06:37:33;9.35;;;5.72;;
64225;SDS011;50545;56.064;26.178;2022-11-20T06:40:00;9.88;;;5.78;;
64225;SDS011;50545;56.064;26.178;2022-11-20T06:42:28;9.52;;;4.93;;
64225;SDS011;50545;56.064;26.178;2022-11-20T06:44:55;11.30;;;5.47;;
64225;SDS011;50545;56.064;26.178;2022-11-20T06:47:22;9.52;;;4.85;;
64225;SDS011;50545;56.064;26.178;2022-11-20T06:49:49;8.02;;;5.43;;
64225;SDS011;50545;56.064;26.178;2022-11-20T06:52:16;9.05;;;5.85;;
64225;SDS011;50545;56.064;26.178;2022-11-20T06:54:43;7.95;;;5.32;;
64225;SDS011;50545;56.064;26.178;2022-11-20T06:57:11;8.80;;;5.25;;
64225;SDS011;50545;56.064;26.178;2022-11-20T06:59:38;8.60;;;5.00;;
64225;SDS011;50545;56.064;26.178;2022-11-20T07:02:05;8.38;;;5.18;;
64225;SDS011;50545;56.064;26.178;2022-11-20T07:04:36;7.22;;;4.85;;
64225;SDS011;50545;56.064;26.178;2022-11-20T07:07:03;8.50;;;4.97;;
64225;SDS011;50545;56.064;26.178;2022-11-20T07:09:32;8.88;;;5.40;;
64225;SDS011;50545;56.064;26.178;2022-11-20T07:12:00;8.75;;;5.20;;
64225;SDS011;50545;56.064;26.178;2022-11-20T07:14:27;9.73;;;5.30;;
64225;SDS011;50545;56.064;26.178;2022-11-20T07:16:55;8.85;;;5.30;;
64225;SDS011;50545;56.064;26.178;2022-11-20T07:19:22;8.02;;;4.72;;
64225;SDS011;50545;56.064;26.178;2022-11-20T07:21:49;8.52;;;5.30;;
64225;SDS011;50545;56.064;26.178;2022-11-20T07:24:16;8.57;;;5.15;;
64225;SDS011;50545;56.064;26.178;2022-11-20T07:26:47;7.95;;;4.80;;
64225;SDS011;50545;56.064;26.178;2022-11-20T07:29:15;10.10;;;5.88;;
64225;SDS011;50545;56.064;26.178;2022-11-20T07:31:43;8.93;;;5.40;;
64225;SDS011;50545;56.064;26.178;2022-11-20T07:34:10;7.55;;;4.80;;
64225;SDS011;50545;56.064;26.178;2022-11-20T07:36:37;8.02;;;4.88;;
64225;SDS011;50545;56.064;26.178;2022-11-20T07:39:05;9.07;;;5.45;;
64225;SDS011;50545;56.064;26.178;2022-11-20T07:41:33;8.05;;;5.20;;
64225;SDS011;50545;56.064;26.178;2022-11-20T07:44:00;8.38;;;4.70;;
64225;SDS011;50545;56.064;26.178;2022-11-20T07:46:27;9.20;;;5.65;;
64225;SDS011;50545;56.064;26.178;2022-11-20T07:48:54;10.20;;;5.45;;
64225;SDS011;50545;56.064;26.178;2022-11-20T07:51:22;8.65;;;5.05;;
64225;SDS011;50545;56.064;26.178;2022-11-20T07:53:52;9.60;;;5.70;;
64225;SDS011;50545;56.064;26.178;2022-11-20T07:56:19;9.23;;;5.00;;
64225;SDS011;50545;56.064;26.178;2022-11-20T07:58:46;9.02;;;4.75;;
64225;SDS011;50545;56.064;26.178;2022-11-20T08:01:14;8.13;;;5.03;;
64225;SDS011;50545;56.064;26.178;2022-11-20T08:03:41;8.55;;;5.45;;
64225;SDS011;50545;56.064;26.178;2022-11-20T08:06:08;8.73;;;5.38;;
64225;SDS011;50545;56.064;26.178;2022-11-20T08:08:35;8.00;;;4.65;;
64225;SDS011;50545;56.064;26.178;2022-11-20T08:11:08;8.38;;;5.40;;
64225;SDS011;50545;56.064;26.178;2022-11-20T08:13:53;8.18;;;4.93;;
64225;SDS011;50545;56.064;26.178;2022-11-20T08:16:40;9.57;;;5.60;;
64225;SDS011;50545;56.064;26.178;2022-11-20T08:19:12;8.30;;;4.97;;
64225;SDS011;50545;56.064;26.178;2022-11-20T08:21:41;9.88;;;5.38;;
64225;SDS011;50545;56.064;26.178;2022-11-20T08:24:08;10.20;;;5.00;;
64225;SDS011;50545;56.064;26.178;2022-11-20T08:26:37;9.60;;;5.97;;
64225;SDS011;50545;56.064;26.178;2022-11-20T08:29:05;8.63;;;5.13;;
64225;SDS011;50545;56.064;26.178;2022-11-20T08:31:32;8.05;;;5.05;;
64225;SDS011;50545;56.064;26.178;2022-11-20T08:34:00;8.18;;;5.10;;
64225;SDS011;50545;56.064;26.178;2022-11-20T08:36:34;11.13;;;5.68;;
64225;SDS011;50545;56.064;26.178;2022-11-20T08:39:02;9.15;;;5.25;;
64225;SDS011;50545;56.064;26.178;2022-11-20T08:41:29;9.73;;;5.97;;
64225;SDS011;50545;56.064;26.178;2022-11-20T08:46:32;9.85;;;5.32;;
64225;SDS011;50545;56.064;26.178;2022-11-20T08:49:01;9.77;;;5.85;;
64225;SDS011;50545;56.064;26.178;2022-11-20T08:51:32;7.93;;;4.57;;
64225;SDS011;50545;56.064;26.178;2022-11-20T08:54:00;10.10;;;6.00;;
64225;SDS011;50545;56.064;26.178;2022-11-20T08:56:27;10.82;;;5.03;;
64225;SDS011;50545;56.064;26.178;2022-11-20T08:58:55;8.60;;;4.80;;
64225;SDS011;50545;56.064;26.178;2022-11-20T09:01:42;8.50;;;5.00;;
64225;SDS011;50545;56.064;26.178;2022-11-20T09:04:10;7.43;;;4.60;;
64225;SDS011;50545;56.064;26.178;2022-11-20T09:06:38;8.20;;;4.93;;
64225;SDS011;50545;56.064;26.178;2022-11-20T09:09:05;9.43;;;5.20;;
64225;SDS011;50545;56.064;26.178;2022-11-20T09:11:33;8.43;;;4.75;;
64225;SDS011;50545;56.064;26.178;2022-11-20T09:14:02;8.77;;;4.95;;
64225;SDS011;50545;56.064;26.178;2022-11-20T09:16:30;8.30;;;4.70;;
64225;SDS011;50545;56.064;26.178;2022-11-20T09:18:57;6.95;;;4.40;;
64225;SDS011;50545;56.064;26.178;2022-11-20T09:21:45;7.65;;;4.32;;
64225;SDS011;50545;56.064;26.178;2022-11-20T09:24:12;8.18;;;4.93;;
64225;SDS011;50545;56.064;26.178;2022-11-20T09:26:39;6.95;;;4.43;;
64225;SDS011;50545;56.064;26.178;2022-11-20T09:29:06;8.68;;;4.88;;
64225;SDS011;50545;56.064;26.178;2022-11-20T09:31:34;9.32;;;5.13;;
64225;SDS011;50545;56.064;26.178;2022-11-20T09:34:01;5.63;;;3.70;;
64225;SDS011;50545;56.064;26.178;2022-11-20T09:36:29;8.23;;;5.00;;
64225;SDS011;50545;56.064;26.178;2022-11-20T09:38:56;8.77;;;5.30;;
64225;SDS011;50545;56.064;26.178;2022-11-20T09:47:11;8.75;;;4.65;;
64225;SDS011;50545;56.064;26.178;2022-11-20T09:50:07;8.57;;;4.35;;
64225;SDS011;50545;56.064;26.178;2022-11-20T09:52:43;8.98;;;4.82;;
64225;SDS011;50545;56.064;26.178;2022-11-20T09:55:31;6.25;;;3.33;;
64225;SDS011;50545;56.064;26.178;2022-11-20T09:58:00;9.10;;;4.88;;
64225;SDS011;50545;56.064;26.178;2022-11-20T10:00:28;10.38;;;5.50;;
64225;SDS011;50545;56.064;26.178;2022-11-20T10:03:30;15.98;;;6.90;;
64225;SDS011;50545;56.064;26.178;2022-11-20T10:06:11;11.40;;;6.10;;
64225;SDS011;50545;56.064;26.178;2022-11-20T10:08:43;12.10;;;6.10;;
64225;SDS011;50545;56.064;26.178;2022-11-20T10:22:28;7.13;;;4.30;;
64225;SDS011;50545;56.064;26.178;2022-11-20T10:31:03;9.65;;;5.82;;
64225;SDS011;50545;56.064;26.178;2022-11-20T10:33:36;10.10;;;5.57;;
64225;SDS011;50545;56.064;26.178;2022-11-20T10:36:30;7.82;;;4.68;;
64225;SDS011;50545;56.064;26.178;2022-11-20T10:41:40;6.20;;;3.08;;
64225;SDS011;50545;56.064;26.178;2022-11-20T10:47:12;10.02;;;5.60;;
64225;SDS011;50545;56.064;26.178;2022-11-20T10:49:51;7.75;;;4.22;;
64225;SDS011;50545;56.064;26.178;2022-11-20T10:58:52;4.55;;;3.10;;
64225;SDS011;50545;56.064;26.178;2022-11-20T11:01:39;4.85;;;2.70;;
64225;SDS011;50545;56.064;26.178;2022-11-20T11:04:17;6.50;;;3.78;;
64225;SDS011;50545;56.064;26.178;2022-11-20T11:07:12;8.52;;;4.80;;
64225;SDS011;50545;56.064;26.178;2022-11-20T11:09:48;5.93;;;3.55;;
64225;SDS011;50545;56.064;26.178;2022-11-20T11:12:17;6.47;;;3.85;;
64225;SDS011;50545;56.064;26.178;2022-11-20T11:14:49;6.68;;;3.75;;
64225;SDS011;50545;56.064;26.178;2022-11-20T11:17:25;7.82;;;4.50;;
64225;SDS011;50545;56.064;26.178;2022-11-20T11:25:34;7.28;;;3.67;;
64225;SDS011;50545;56.064;26.178;2022-11-20T11:28:03;7.20;;;3.88;;
64225;SDS011;50545;56.064;26.178;2022-11-20T11:30:40;5.65;;;3.10;;
64225;SDS011;50545;56.064;26.178;2022-11-20T11:33:10;3.28;;;1.95;;
64225;SDS011;50545;56.064;26.178;2022-11-20T11:35:46;4.82;;;2.47;;
64225;SDS011;50545;56.064;26.178;2022-11-20T11:38:36;6.63;;;3.92;;
64225;SDS011;50545;56.064;26.178;2022-11-20T11:41:06;4.38;;;2.97;;
64225;SDS011;50545;56.064;26.178;2022-11-20T11:43:36;4.20;;;2.35;;
64225;SDS011;50545;56.064;26.178;2022-11-20T11:48:58;6.07;;;3.58;;
64225;SDS011;50545;56.064;26.178;2022-11-20T11:51:29;5.73;;;3.70;;
64225;SDS011;50545;56.064;26.178;2022-11-20T11:54:16;7.50;;;4.10;;
64225;SDS011;50545;56.064;26.178;2022-11-20T11:56:51;6.32;;;3.30;;
64225;SDS011;50545;56.064;26.178;2022-11-20T11:59:27;5.75;;;3.10;;
64225;SDS011;50545;56.064;26.178;2022-11-20T12:02:13;6.00;;;3.63;;
64225;SDS011;50545;56.064;26.178;2022-11-20T12:04:53;5.40;;;3.45;;
64225;SDS011;50545;56.064;26.178;2022-11-20T12:07:36;5.43;;;3.30;;
64225;SDS011;50545;56.064;26.178;2022-11-20T12:10:17;8.48;;;3.80;;
64225;SDS011;50545;56.064;26.178;2022-11-20T12:13:02;3.40;;;2.08;;
64225;SDS011;50545;56.064;26.178;2022-11-20T12:15:44;3.13;;;1.92;;
64225;SDS011;50545;56.064;26.178;2022-11-20T12:18:18;3.30;;;2.35;;
64225;SDS011;50545;56.064;26.178;2022-11-20T12:35:23;1.90;;;1.02;;
64225;SDS011;50545;56.064;26.178;2022-11-20T12:40:51;3.88;;;2.15;;
64225;SDS011;50545;56.064;26.178;2022-11-20T12:59:18;4.97;;;2.72;;
64225;SDS011;50545;56.064;26.178;2022-11-20T13:05:09;3.35;;;2.20;;
64225;SDS011;50545;56.064;26.178;2022-11-20T13:07:45;5.68;;;3.08;;
64225;SDS011;50545;56.064;26.178;2022-11-20T13:10:15;4.43;;;2.38;;
64225;SDS011;50545;56.064;26.178;2022-11-20T13:12:53;4.85;;;2.72;;
64225;SDS011;50545;56.064;26.178;2022-11-20T13:18:18;4.68;;;2.90;;
64225;SDS011;50545;56.064;26.178;2022-11-20T13:20:46;5.28;;;3.20;;
64225;SDS011;50545;56.064;26.178;2022-11-20T13:23:28;5.30;;;2.93;;
64225;SDS011;50545;56.064;26.178;2022-11-20T13:28:47;5.22;;;2.83;;
64225;SDS011;50545;56.064;26.178;2022-11-20T13:31:34;4.70;;;3.00;;
64225;SDS011;50545;56.064;26.178;2022-11-20T13:34:04;5.25;;;3.42;;
64225;SDS011;50545;56.064;26.178;2022-11-20T13:36:33;4.13;;;2.75;;
64225;SDS011;50545;56.064;26.178;2022-11-20T13:39:01;4.15;;;2.40;;
64225;SDS011;50545;56.064;26.178;2022-11-20T13:41:36;5.85;;;3.55;;
64225;SDS011;50545;56.064;26.178;2022-11-20T13:46:43;5.00;;;2.65;;
64225;SDS011;50545;56.064;26.178;2022-11-20T13:55:29;4.07;;;2.42;;
64225;SDS011;50545;56.064;26.178;2022-11-20T14:01:28;3.53;;;2.42;;
64225;SDS011;50545;56.064;26.178;2022-11-20T14:03:58;3.00;;;2.05;;
64225;SDS011;50545;56.064;26.178;2022-11-20T14:06:34;5.25;;;2.78;;
64225;SDS011;50545;56.064;26.178;2022-11-20T14:09:11;4.70;;;2.90;;
64225;SDS011;50545;56.064;26.178;2022-11-20T14:11:51;2.60;;;1.58;;
64225;SDS011;50545;56.064;26.178;2022-11-20T14:14:20;5.68;;;2.88;;
64225;SDS011;50545;56.064;26.178;2022-11-20T14:16:52;5.22;;;3.05;;
64225;SDS011;50545;56.064;26.178;2022-11-20T14:19:31;2.10;;;1.45;;
64225;SDS011;50545;56.064;26.178;2022-11-20T14:22:19;5.15;;;3.00;;
64225;SDS011;50545;56.064;26.178;2022-11-20T14:24:49;4.07;;;2.78;;
64225;SDS011;50545;56.064;26.178;2022-11-20T14:27:36;5.82;;;3.42;;
64225;SDS011;50545;56.064;26.178;2022-11-20T14:30:06;8.00;;;3.67;;
64225;SDS011;50545;56.064;26.178;2022-11-20T14:33:01;6.45;;;3.95;;
64225;SDS011;50545;56.064;26.178;2022-11-20T14:35:30;5.23;;;3.03;;
64225;SDS011;50545;56.064;26.178;2022-11-20T14:38:03;3.13;;;1.98;;
64225;SDS011;50545;56.064;26.178;2022-11-20T14:40:37;4.10;;;2.03;;
64225;SDS011;50545;56.064;26.178;2022-11-20T14:43:25;7.07;;;3.45;;
64225;SDS011;50545;56.064;26.178;2022-11-20T14:46:02;4.15;;;2.50;;
64225;SDS011;50545;56.064;26.178;2022-11-20T14:51:09;2.20;;;1.58;;
64225;SDS011;50545;56.064;26.178;2022-11-20T14:53:37;6.22;;;3.35;;
64225;SDS011;50545;56.064;26.178;2022-11-20T14:56:04;5.80;;;3.30;;
64225;SDS011;50545;56.064;26.178;2022-11-20T14:58:33;5.40;;;3.00;;
64225;SDS011;50545;56.064;26.178;2022-11-20T15:01:01;4.90;;;2.72;;
64225;SDS011;50545;56.064;26.178;2022-11-20T15:03:38;5.60;;;3.33;;
64225;SDS011;50545;56.064;26.178;2022-11-20T15:06:07;6.00;;;2.75;;
64225;SDS011;50545;56.064;26.178;2022-11-20T15:08:38;5.15;;;3.22;;
64225;SDS011;50545;56.064;26.178;2022-11-20T15:11:16;3.50;;;1.83;;
64225;SDS011;50545;56.064;26.178;2022-11-20T15:13:44;6.07;;;3.30;;
64225;SDS011;50545;56.064;26.178;2022-11-20T15:16:14;5.68;;;2.92;;
64225;SDS011;50545;56.064;26.178;2022-11-20T15:18:46;3.90;;;2.63;;
64225;SDS011;50545;56.064;26.178;2022-11-20T15:21:15;3.00;;;1.83;;
64225;SDS011;50545;56.064;26.178;2022-11-20T15:23:44;6.05;;;3.70;;
64225;SDS011;50545;56.064;26.178;2022-11-20T15:26:12;5.72;;;3.55;;
64225;SDS011;50545;56.064;26.178;2022-11-20T15:28:46;5.70;;;3.28;;
64225;SDS011;50545;56.064;26.178;2022-11-20T15:31:17;2.75;;;1.65;;
64225;SDS011;50545;56.064;26.178;2022-11-20T15:33:47;6.43;;;3.17;;
64225;SDS011;50545;56.064;26.178;2022-11-20T15:36:14;2.75;;;1.95;;
64225;SDS011;50545;56.064;26.178;2022-11-20T15:38:42;6.03;;;3.40;;
64225;SDS011;50545;56.064;26.178;2022-11-20T15:41:09;5.80;;;3.38;;
64225;SDS011;50545;56.064;26.178;2022-11-20T15:43:36;6.88;;;3.28;;
64225;SDS011;50545;56.064;26.178;2022-11-20T15:46:06;12.95;;;6.72;;
64225;SDS011;50545;56.064;26.178;2022-11-20T15:48:40;10.88;;;5.80;;
64225;SDS011;50545;56.064;26.178;2022-11-20T15:51:21;9.45;;;5.25;;
64225;SDS011;50545;56.064;26.178;2022-11-20T15:53:54;5.70;;;2.90;;
64225;SDS011;50545;56.064;26.178;2022-11-20T15:56:22;8.60;;;5.03;;
64225;SDS011;50545;56.064;26.178;2022-11-20T15:58:50;7.18;;;4.60;;
64225;SDS011;50545;56.064;26.178;2022-11-20T16:01:18;8.48;;;5.35;;
64225;SDS011;50545;56.064;26.178;2022-11-20T16:06:15;8.98;;;5.30;;
64225;SDS011;50545;56.064;26.178;2022-11-20T16:08:44;2.28;;;1.27;;
64225;SDS011;50545;56.064;26.178;2022-11-20T16:11:13;5.93;;;3.20;;
64225;SDS011;50545;56.064;26.178;2022-11-20T16:13:41;7.78;;;3.88;;
64225;SDS011;50545;56.064;26.178;2022-11-20T16:16:28;7.15;;;3.38;;
64225;SDS011;50545;56.064;26.178;2022-11-20T16:19:01;6.20;;;3.83;;
64225;SDS011;50545;56.064;26.178;2022-11-20T16:21:28;6.05;;;3.35;;
64225;SDS011;50545;56.064;26.178;2022-11-20T16:24:03;5.63;;;3.50;;
64225;SDS011;50545;56.064;26.178;2022-11-20T16:26:31;8.40;;;4.72;;
64225;SDS011;50545;56.064;26.178;2022-11-20T16:28:59;5.20;;;3.05;;
64225;SDS011;50545;56.064;26.178;2022-11-20T16:31:28;6.22;;;3.80;;
64225;SDS011;50545;56.064;26.178;2022-11-20T16:33:57;5.82;;;3.30;;
64225;SDS011;50545;56.064;26.178;2022-11-20T16:36:26;4.03;;;2.45;;
64225;SDS011;50545;56.064;26.178;2022-11-20T16:38:55;4.70;;;2.80;;
64225;SDS011;50545;56.064;26.178;2022-11-20T16:41:24;6.88;;;4.32;;
64225;SDS011;50545;56.064;26.178;2022-11-20T16:43:53;2.85;;;1.88;;
64225;SDS011;50545;56.064;26.178;2022-11-20T16:46:28;2.38;;;1.38;;
64225;SDS011;50545;56.064;26.178;2022-11-20T16:48:57;7.25;;;3.67;;
64225;SDS011;50545;56.064;26.178;2022-11-20T16:51:26;7.95;;;3.97;;
64225;SDS011;50545;56.064;26.178;2022-11-20T16:53:55;5.05;;;3.03;;
64225;SDS011;50545;56.064;26.178;2022-11-20T16:56:24;5.63;;;3.13;;
64225;SDS011;50545;56.064;26.178;2022-11-20T16:58:53;2.03;;;1.48;;
64225;SDS011;50545;56.064;26.178;2022-11-20T17:01:24;3.92;;;2.35;;